createdAt,value
2022-12-16T00:03:09.855Z,85.73
2022-12-16T00:08:12.778Z,78.30
2022-12-16T00:13:15.677Z,77.50
2022-12-16T00:18:20.292Z,70.90
2022-12-16T00:23:23.580Z,68.27
2022-12-16T00:28:26.896Z,80.50
2022-12-16T00:33:31.771Z,66.83
2022-12-16T00:38:35.137Z,69.37
2022-12-16T00:43:38.024Z,81.40
2022-12-16T00:48:42.287Z,83.10
2022-12-16T00:53:45.293Z,73.37
2022-12-16T00:58:48.436Z,79.33
2022-12-16T01:03:52.669Z,74.80
2022-12-16T01:08:55.817Z,69.90
2022-12-16T01:13:59.620Z,78.90
2022-12-16T01:19:04.082Z,69.77
2022-12-16T01:24:07.575Z,85.90
2022-12-16T01:29:10.473Z,70.83
2022-12-16T01:34:14.769Z,83.90
2022-12-16T01:39:18.615Z,79.03
2022-12-16T01:44:24.970Z,72.77
2022-12-16T01:49:35.148Z,80.50
2022-12-16T01:54:43.399Z,80.90
2022-12-16T01:59:51.410Z,85.23
2022-12-16T02:05:14.786Z,77.90
2022-12-16T02:10:17.839Z,69.53
2022-12-16T02:15:30.991Z,69.00
2022-12-16T02:21:13.659Z,70.83
2022-12-16T02:26:39.965Z,79.00
2022-12-16T02:31:53.101Z,80.43
2022-12-16T02:37:08.623Z,78.47
2022-12-16T02:42:17.555Z,80.40
2022-12-16T02:47:22.060Z,69.60
2022-12-16T02:52:27.431Z,66.47
2022-12-16T02:57:47.116Z,74.70
2022-12-16T03:02:58.598Z,77.33
2022-12-16T03:08:06.056Z,76.07
2022-12-16T03:13:11.898Z,81.73
2022-12-16T03:18:17.670Z,99.27
2022-12-16T03:23:26.794Z,89.13
2022-12-16T03:28:39.653Z,83.13
2022-12-16T03:33:49.081Z,76.73
2022-12-16T03:38:52.878Z,82.77
2022-12-16T03:43:55.969Z,81.80
2022-12-16T03:49:00.230Z,74.87
2022-12-16T03:54:03.148Z,67.03
2022-12-16T03:59:06.096Z,85.97
2022-12-16T04:04:10.467Z,74.20
2022-12-16T04:09:13.360Z,73.30
2022-12-16T04:14:34.105Z,65.13
2022-12-16T04:19:56.556Z,64.03
2022-12-16T04:25:03.225Z,58.63
2022-12-16T04:30:23.112Z,67.73
2022-12-16T04:35:44.558Z,61.63
2022-12-16T04:41:05.158Z,52.73
2022-12-16T04:46:25.338Z,53.87
2022-12-16T04:51:46.981Z,58.60
2022-12-16T04:57:07.078Z,53.73
2022-12-16T05:02:27.500Z,49.77
2022-12-16T05:07:49.406Z,50.77
2022-12-16T05:13:11.259Z,50.37
2022-12-16T05:18:33.298Z,54.90
2022-12-16T05:24:03.322Z,50.10
2022-12-16T05:29:23.718Z,54.10
2022-12-16T05:34:43.974Z,52.17
2022-12-16T05:40:05.706Z,46.47
2022-12-16T05:45:26.576Z,58.20
2022-12-16T05:50:48.004Z,51.80
2022-12-16T05:56:09.547Z,46.10
2022-12-16T06:01:30.905Z,48.60
2022-12-16T06:06:51.136Z,50.83
2022-12-16T06:12:12.980Z,45.93
2022-12-16T06:17:33.140Z,48.03
2022-12-16T06:22:53.339Z,44.37
2022-12-16T06:28:20.133Z,48.93
2022-12-16T06:33:40.483Z,51.60
2022-12-16T06:39:00.669Z,48.07
2022-12-16T06:44:27.700Z,48.73
2022-12-16T06:49:44.544Z,50.37
2022-12-16T06:55:04.958Z,55.23
2022-12-16T07:00:28.608Z,49.63
2022-12-16T07:05:48.760Z,52.83
2022-12-16T07:11:16.616Z,54.10
2022-12-16T07:16:38.931Z,53.00
2022-12-16T07:21:59.502Z,56.90
2022-12-16T07:27:19.737Z,53.97
2022-12-16T07:32:41.441Z,55.97
2022-12-16T07:38:01.620Z,58.40
2022-12-16T07:43:22.197Z,58.13
2022-12-16T07:48:44.311Z,64.87
2022-12-16T07:54:04.541Z,63.50
2022-12-16T07:59:24.738Z,51.77
2022-12-16T08:04:46.561Z,52.53
2022-12-16T08:10:06.692Z,54.37
2022-12-16T08:15:28.052Z,61.17
2022-12-16T08:20:49.979Z,63.10
2022-12-16T08:26:06.809Z,67.30
2022-12-16T08:31:27.235Z,58.43
2022-12-16T08:36:48.891Z,60.30
2022-12-16T08:42:09.328Z,65.27
2022-12-16T08:47:29.816Z,71.47
2022-12-16T08:52:51.407Z,64.80
2022-12-16T08:58:12.253Z,70.70
2022-12-16T09:03:33.152Z,65.77
2022-12-16T09:08:54.865Z,76.10
2022-12-16T09:14:15.946Z,82.53
2022-12-16T09:19:37.204Z,88.20
2022-12-16T09:24:58.880Z,85.20
2022-12-16T09:30:24.419Z,87.03
2022-12-16T09:35:44.959Z,68.60
2022-12-16T09:41:06.425Z,64.00
2022-12-16T09:46:33.283Z,69.37
2022-12-16T09:51:55.943Z,79.30
2022-12-16T09:57:19.991Z,82.57
2022-12-16T10:02:43.546Z,67.70
2022-12-16T10:08:13.019Z,71.00
2022-12-16T10:13:44.834Z,69.30
2022-12-16T10:19:13.815Z,74.13
2022-12-16T10:24:48.997Z,69.53
2022-12-16T10:30:10.369Z,72.10
2022-12-16T10:35:39.519Z,69.60
2022-12-16T10:41:00.213Z,79.33
2022-12-16T10:46:27.142Z,70.27
2022-12-16T10:51:48.473Z,77.30
2022-12-16T10:57:15.280Z,84.30
2022-12-16T11:02:35.591Z,72.23
2022-12-16T11:07:58.696Z,75.43
2022-12-16T11:13:35.191Z,73.80
2022-12-16T11:19:08.458Z,80.77
2022-12-16T11:24:34.111Z,75.03
2022-12-16T11:30:07.997Z,79.97
2022-12-16T11:35:33.914Z,78.53
2022-12-16T11:40:55.623Z,82.70
2022-12-16T11:46:18.615Z,85.23
2022-12-16T11:51:42.626Z,76.60
2022-12-16T11:57:04.334Z,79.77
2022-12-16T12:02:34.915Z,70.23
2022-12-16T12:08:02.911Z,73.30
2022-12-16T12:13:26.768Z,74.13
2022-12-16T12:18:59.626Z,80.43
2022-12-16T12:24:31.170Z,78.43
2022-12-16T12:30:04.610Z,75.00
2022-12-16T12:35:44.267Z,81.63
2022-12-16T12:41:15.030Z,77.43
2022-12-16T12:46:53.428Z,76.90
2022-12-16T12:52:22.203Z,77.27
2022-12-16T12:57:46.736Z,73.60
2022-12-16T13:03:19.095Z,91.70
2022-12-16T13:09:03.101Z,77.43
2022-12-16T13:15:10.315Z,74.73
2022-12-16T13:20:55.368Z,72.53
2022-12-16T13:26:23.898Z,71.27
2022-12-16T13:31:47.636Z,79.13
2022-12-16T13:37:23.571Z,83.43
2022-12-16T13:43:10.212Z,74.93
2022-12-16T13:48:53.959Z,84.63
2022-12-16T13:54:18.122Z,83.43
2022-12-16T13:59:41.996Z,82.37
2022-12-16T14:05:06.568Z,82.47
2022-12-16T14:10:42.409Z,81.97
2022-12-16T14:16:17.199Z,80.70
2022-12-16T14:21:47.289Z,80.30
2022-12-16T14:27:09.691Z,73.70
2022-12-16T14:32:44.979Z,77.80
2022-12-16T14:38:06.964Z,81.17
2022-12-16T14:43:31.300Z,78.30
2022-12-16T14:48:54.290Z,85.67
2022-12-16T14:54:34.682Z,75.03
2022-12-16T14:59:54.898Z,84.00
2022-12-16T15:05:15.669Z,89.97
2022-12-16T15:10:39.767Z,82.00
2022-12-16T15:16:03.285Z,84.50
2022-12-16T15:21:26.162Z,78.33
2022-12-16T15:26:51.250Z,81.60
2022-12-16T15:32:11.739Z,87.33
2022-12-16T15:37:38.056Z,85.23
2022-12-16T15:43:00.282Z,78.97
2022-12-16T15:48:31.236Z,74.03
2022-12-16T15:53:56.021Z,76.13
2022-12-16T16:04:49.415Z,79.00
2022-12-16T16:10:15.222Z,77.93
2022-12-16T16:15:36.821Z,74.67
2022-12-16T16:20:58.972Z,80.20
2022-12-16T16:26:19.783Z,76.87
2022-12-16T16:31:40.390Z,85.73
2022-12-16T16:37:02.351Z,91.07
2022-12-16T16:42:34.199Z,82.47
2022-12-16T16:47:54.557Z,70.77
2022-12-16T16:53:16.386Z,76.43
2022-12-16T16:58:44.400Z,87.30
2022-12-16T17:04:04.885Z,81.93
2022-12-16T17:09:32.111Z,72.17
2022-12-16T17:14:52.701Z,84.07
2022-12-16T17:20:12.909Z,88.67
2022-12-16T17:25:34.903Z,82.70
2022-12-16T17:30:55.320Z,80.13
2022-12-16T17:36:16.078Z,72.10
2022-12-16T17:41:38.022Z,90.60
2022-12-16T17:46:58.343Z,77.63
2022-12-16T17:52:18.903Z,82.03
2022-12-16T17:57:55.138Z,75.37
2022-12-16T18:03:15.835Z,78.47
2022-12-16T18:08:36.355Z,76.30
2022-12-16T18:13:58.477Z,83.97
2022-12-16T18:19:19.023Z,84.20
2022-12-16T18:24:42.522Z,75.43
2022-12-16T18:30:08.372Z,96.27
2022-12-16T18:35:28.796Z,85.30
2022-12-16T18:40:49.176Z,93.97
2022-12-16T18:46:14.306Z,83.10
2022-12-16T18:51:34.734Z,79.67
2022-12-16T18:56:55.223Z,77.83
2022-12-16T19:02:17.187Z,82.50
2022-12-16T19:07:45.750Z,78.00
2022-12-16T19:13:20.592Z,80.87
2022-12-16T19:18:42.623Z,83.20
2022-12-16T19:24:03.053Z,83.57
2022-12-16T19:29:23.138Z,70.43
2022-12-16T19:34:44.870Z,68.93
2022-12-16T19:40:05.292Z,80.20
2022-12-16T19:45:26.707Z,86.30
2022-12-16T19:50:48.542Z,72.83
2022-12-16T19:56:13.753Z,68.03
2022-12-16T20:01:34.051Z,67.83
2022-12-16T20:06:56.616Z,80.57
2022-12-16T20:12:17.149Z,76.40
2022-12-16T20:17:37.537Z,80.67
2022-12-16T20:22:59.272Z,81.10
2022-12-16T20:28:24.765Z,71.10
2022-12-16T20:33:45.556Z,87.40
2022-12-16T20:39:07.432Z,69.00
2022-12-16T20:44:27.683Z,81.67
2022-12-16T20:49:47.744Z,74.20
2022-12-16T20:55:09.325Z,71.67
2022-12-16T21:00:31.692Z,71.63
2022-12-16T21:05:52.455Z,74.40
2022-12-16T21:11:17.729Z,73.90
2022-12-16T21:16:37.950Z,69.23
2022-12-16T21:21:58.245Z,80.33
2022-12-16T21:27:19.801Z,79.63
2022-12-16T21:32:44.363Z,73.43
2022-12-16T21:38:04.949Z,76.17
2022-12-16T21:43:26.604Z,66.37
2022-12-16T21:48:47.000Z,66.03
2022-12-16T21:54:09.726Z,77.90
2022-12-16T21:59:45.851Z,74.33
2022-12-16T22:05:06.047Z,75.83
2022-12-16T22:10:26.955Z,73.53
2022-12-16T22:15:48.477Z,73.70
2022-12-16T22:21:15.446Z,73.40
2022-12-16T22:26:35.945Z,76.43
2022-12-16T22:31:58.289Z,69.53
2022-12-16T22:37:18.730Z,70.20
2022-12-16T22:42:39.029Z,68.10
2022-12-16T22:48:00.739Z,69.33
2022-12-16T22:53:20.977Z,70.83
2022-12-16T22:58:41.276Z,72.50
2022-12-16T23:04:02.772Z,66.87
2022-12-16T23:09:23.037Z,70.37
2022-12-16T23:14:44.075Z,74.83
2022-12-16T23:20:05.657Z,72.37
2022-12-16T23:25:26.493Z,84.00
2022-12-16T23:30:46.945Z,90.43
2022-12-16T23:36:08.779Z,80.10
2022-12-16T23:41:29.966Z,69.17
2022-12-16T23:46:50.426Z,64.80
2022-12-16T23:52:12.094Z,77.40
2022-12-16T23:57:32.341Z,72.13
